createdAt,value
2022-09-16T00:00:54.784Z,95639.44
2022-09-16T00:03:22.950Z,95638.31
2022-09-16T00:05:52.984Z,95636.84
2022-09-16T00:08:22.696Z,95632.56
2022-09-16T00:10:50.553Z,95638.31
2022-09-16T00:13:18.678Z,95629.38
2022-09-16T00:15:47.737Z,95626.69
2022-09-16T00:18:15.789Z,95636.06
2022-09-16T00:20:45.759Z,95630.06
2022-09-16T00:23:13.501Z,95631.19
2022-09-16T00:25:42.573Z,95628.59
2022-09-16T00:28:10.318Z,95632.44
2022-09-16T00:30:38.046Z,95622.75
2022-09-16T00:33:05.812Z,95629.63
2022-09-16T00:35:33.494Z,95628.84
2022-09-16T00:38:01.401Z,95631.78
2022-09-16T00:40:29.374Z,95629.28
2022-09-16T00:43:00.094Z,95624.78
2022-09-16T00:45:31.498Z,95623.19
2022-09-16T00:48:02.677Z,95623.63
2022-09-16T00:50:38.327Z,95629.84
2022-09-16T00:53:07.131Z,95634.47
2022-09-16T00:55:38.039Z,95629.06
2022-09-16T00:58:14.969Z,95628.38
2022-09-16T01:00:43.237Z,95619.78
2022-09-16T01:03:11.056Z,95628.38
2022-09-16T01:05:39.774Z,95623.09
2022-09-16T01:08:07.450Z,95630.44
2022-09-16T01:10:35.142Z,95623.19
2022-09-16T01:13:06.025Z,95619.78
2022-09-16T01:15:42.265Z,95615.63
2022-09-16T01:18:21.553Z,95621.84
2022-09-16T01:21:10.401Z,95618.91
2022-09-16T01:24:05.814Z,95615.41
2022-09-16T01:27:04.899Z,95622.41
2022-09-16T01:30:09.542Z,95618.91
2022-09-16T01:32:47.829Z,95612.34
2022-09-16T01:35:23.772Z,95613.13
2022-09-16T01:38:00.675Z,95615.84
2022-09-16T01:40:34.411Z,95613.13
2022-09-16T01:43:12.510Z,95617.09
2022-09-16T01:45:45.105Z,95625.66
2022-09-16T01:48:24.128Z,95618.41
2022-09-16T01:51:00.639Z,95623.50
2022-09-16T01:53:34.388Z,95612.31
2022-09-16T01:56:10.275Z,95616.50
2022-09-16T01:58:42.464Z,95619.91
2022-09-16T02:01:15.894Z,95621.03
2022-09-16T02:03:50.234Z,95618.31
2022-09-16T02:06:22.692Z,95619.44
2022-09-16T02:08:54.730Z,95614.38
2022-09-16T02:11:22.800Z,95618.91
2022-09-16T02:13:55.411Z,95618.91
2022-09-16T02:16:30.860Z,95625.78
2022-09-16T02:19:06.615Z,95618.66
2022-09-16T02:21:41.271Z,95619.78
2022-09-16T02:24:17.264Z,95616.19
2022-09-16T02:26:49.581Z,95608.84
2022-09-16T02:29:22.818Z,95609.97
2022-09-16T02:31:55.766Z,95605.69
2022-09-16T02:34:29.689Z,95605.56
2022-09-16T02:37:04.954Z,95604.34
2022-09-16T02:39:37.491Z,95604.00
2022-09-16T02:42:05.953Z,95600.38
2022-09-16T02:44:34.258Z,95606.59
2022-09-16T02:47:06.914Z,95611.56
2022-09-16T02:49:43.040Z,95608.88
2022-09-16T02:52:17.079Z,95603.22
2022-09-16T02:54:53.923Z,95613.69
2022-09-16T02:57:22.372Z,95606.72
2022-09-16T02:59:50.792Z,95610.31
2022-09-16T03:02:18.863Z,95612.13
2022-09-16T03:04:48.080Z,95616.19
2022-09-16T03:07:16.834Z,95602.44
2022-09-16T03:09:48.483Z,95596.53
2022-09-16T03:12:38.495Z,95604.22
2022-09-16T03:15:37.064Z,95602.66
2022-09-16T03:18:28.510Z,95602.53
2022-09-16T03:21:03.699Z,95592.38
2022-09-16T03:23:44.634Z,95602.28
2022-09-16T03:26:21.807Z,95601.50
2022-09-16T03:28:59.556Z,95597.56
2022-09-16T03:31:31.134Z,95597.44
2022-09-16T03:34:06.588Z,95602.88
2022-09-16T03:36:39.088Z,95604.78
2022-09-16T03:39:07.196Z,95610.22
2022-09-16T03:41:35.622Z,95610.53
2022-09-16T03:44:04.410Z,95608.72
2022-09-16T03:46:32.663Z,95615.75
2022-09-16T03:49:00.890Z,95604.91
2022-09-16T03:51:28.819Z,95603.78
2022-09-16T03:53:58.241Z,95610.34
2022-09-16T03:56:26.281Z,95604.91
2022-09-16T03:58:53.953Z,95593.38
2022-09-16T04:01:21.706Z,95604.69
2022-09-16T04:03:49.450Z,95597.00
2022-09-16T04:06:17.133Z,95594.41
2022-09-16T04:08:45.011Z,95597.22
2022-09-16T04:11:13.996Z,95594.97
2022-09-16T04:13:41.684Z,95591.13
2022-09-16T04:16:09.422Z,95600.50
2022-09-16T04:18:37.701Z,95602.97
2022-09-16T04:21:06.179Z,95603.88
2022-09-16T04:23:34.371Z,95596.19
2022-09-16T04:26:04.446Z,95592.44
2022-09-16T04:28:34.612Z,95590.22
2022-09-16T04:31:03.280Z,95585.56
2022-09-16T04:33:32.000Z,95586.00
2022-09-16T04:36:04.290Z,95585.69
2022-09-16T04:38:32.022Z,95594.25
2022-09-16T04:41:04.654Z,95591.09
2022-09-16T04:43:33.936Z,95590.41
2022-09-16T04:46:01.929Z,95590.88
2022-09-16T04:48:30.492Z,95601.38
2022-09-16T04:51:03.918Z,95594.13
2022-09-16T04:53:31.675Z,95600.78
2022-09-16T04:56:05.430Z,95602.47
2022-09-16T04:58:34.915Z,95601.44
2022-09-16T05:01:08.179Z,95602.22
2022-09-16T05:03:36.065Z,95610.16
2022-09-16T05:06:09.190Z,95607.88
2022-09-16T05:08:37.300Z,95610.22
2022-09-16T05:11:07.511Z,95604.13
2022-09-16T05:13:36.860Z,95602.19
2022-09-16T05:16:07.385Z,95592.59
2022-09-16T05:18:35.784Z,95599.59
2022-09-16T05:21:06.179Z,95606.25
2022-09-16T05:23:34.116Z,95600.81
2022-09-16T05:26:05.111Z,95595.50
2022-09-16T05:28:33.159Z,95595.50
2022-09-16T05:31:13.755Z,95590.88
2022-09-16T05:33:42.805Z,95595.16
2022-09-16T05:36:12.306Z,95600.34
2022-09-16T05:38:40.176Z,95593.69
2022-09-16T05:41:08.414Z,95594.94
2022-09-16T05:43:36.961Z,95598.88
2022-09-16T05:46:06.047Z,95597.03
2022-09-16T05:48:36.248Z,95603.38
2022-09-16T05:51:06.761Z,95594.09
2022-09-16T05:53:35.536Z,95596.13
2022-09-16T05:56:05.238Z,95591.56
2022-09-16T05:58:34.476Z,95591.22
2022-09-16T06:01:03.781Z,95592.13
2022-09-16T06:03:31.632Z,95594.22
2022-09-16T06:06:05.323Z,95584.38
2022-09-16T06:08:35.334Z,95584.47
2022-09-16T06:11:03.898Z,95586.16
2022-09-16T06:13:31.745Z,95593.25
2022-09-16T06:16:00.419Z,95580.88
2022-09-16T06:18:29.822Z,95577.50
2022-09-16T06:20:58.464Z,95585.38
2022-09-16T06:23:27.572Z,95585.47
2022-09-16T06:26:01.712Z,95577.38
2022-09-16T06:28:29.590Z,95569.34
2022-09-16T06:31:06.538Z,95569.84
2022-09-16T06:33:34.633Z,95573.13
2022-09-16T06:36:06.818Z,95573.97
2022-09-16T06:38:36.202Z,95574.78
2022-09-16T06:41:06.866Z,95574.06
2022-09-16T06:43:35.632Z,95581.44
2022-09-16T06:46:05.559Z,95583.38
2022-09-16T06:48:34.714Z,95572.41
2022-09-16T06:51:04.323Z,95563.09
2022-09-16T06:53:33.054Z,95565.13
2022-09-16T06:56:04.124Z,95558.91
2022-09-16T06:58:34.221Z,95556.97
2022-09-16T07:01:06.105Z,95554.00
2022-09-16T07:03:38.000Z,95563.47
2022-09-16T07:06:06.305Z,95564.88
2022-09-16T07:08:35.264Z,95580.81
2022-09-16T07:11:06.615Z,95567.66
2022-09-16T07:13:34.792Z,95561.59
2022-09-16T07:16:19.334Z,95557.75
2022-09-16T07:18:48.317Z,95561.41
2022-09-16T07:21:18.521Z,95567.28
2022-09-16T07:23:47.403Z,95574.47
2022-09-16T07:26:18.041Z,95573.75
2022-09-16T07:28:47.655Z,95580.88
2022-09-16T07:31:17.411Z,95582.44
2022-09-16T07:33:47.676Z,95580.22
2022-09-16T07:36:17.276Z,95578.69
2022-09-16T07:38:44.973Z,95574.69
2022-09-16T07:41:14.538Z,95569.38
2022-09-16T07:43:44.136Z,95571.13
2022-09-16T07:46:13.958Z,95577.06
2022-09-16T07:48:41.755Z,95576.00
2022-09-16T07:51:11.966Z,95576.56
2022-09-16T07:53:40.233Z,95577.44
2022-09-16T07:56:10.035Z,95581.94
2022-09-16T07:58:38.182Z,95590.84
2022-09-16T08:01:08.557Z,95590.34
2022-09-16T08:03:39.331Z,95590.59
2022-09-16T08:06:10.742Z,95592.75
2022-09-16T08:08:38.500Z,95586.81
2022-09-16T08:11:06.832Z,95589.53
2022-09-16T08:13:35.860Z,95586.72
2022-09-16T08:16:06.834Z,95586.47
2022-09-16T08:18:36.192Z,95593.03
2022-09-16T08:21:07.675Z,95592.53
2022-09-16T08:23:35.475Z,95592.53
2022-09-16T08:26:03.898Z,95595.63
2022-09-16T08:28:40.111Z,95586.72
2022-09-16T08:31:20.634Z,95588.66
2022-09-16T08:33:49.954Z,95595.25
2022-09-16T08:36:20.070Z,95599.22
2022-09-16T08:38:49.404Z,95593.75
2022-09-16T08:41:27.430Z,95598.69
2022-09-16T08:44:04.717Z,95602.75
2022-09-16T08:46:41.897Z,95603.75
2022-09-16T08:49:19.681Z,95600.47
2022-09-16T08:51:47.924Z,95618.22
2022-09-16T08:54:25.746Z,95601.38
2022-09-16T08:56:55.985Z,95598.75
2022-09-16T08:59:28.668Z,95611.47
2022-09-16T09:02:08.895Z,95609.22
2022-09-16T09:04:38.604Z,95619.41
2022-09-16T09:07:13.992Z,95602.31
2022-09-16T09:09:56.095Z,95603.97
2022-09-16T09:12:31.406Z,95601.94
2022-09-16T09:15:15.020Z,95610.38
2022-09-16T09:17:59.424Z,95602.84
2022-09-16T09:20:40.782Z,95599.25
2022-09-16T09:23:24.105Z,95592.66
2022-09-16T09:25:59.024Z,95598.91
2022-09-16T09:28:50.202Z,95599.94
2022-09-16T09:31:28.740Z,95609.47
2022-09-16T09:34:06.968Z,95606.47
2022-09-16T09:36:48.926Z,95605.88
2022-09-16T09:39:32.544Z,95607.47
2022-09-16T09:42:06.548Z,95599.53
2022-09-16T09:44:52.279Z,95603.72
2022-09-16T09:47:25.756Z,95601.72
2022-09-16T09:49:57.994Z,95602.97
2022-09-16T09:52:32.402Z,95602.81
2022-09-16T09:55:16.386Z,95604.06
2022-09-16T09:58:02.516Z,95603.28
2022-09-16T10:00:30.320Z,95594.44
2022-09-16T10:03:06.023Z,95599.47
2022-09-16T10:05:33.878Z,95593.53
2022-09-16T10:08:05.822Z,95598.75
2022-09-16T10:10:36.041Z,95597.59
2022-09-16T10:13:12.954Z,95603.59
2022-09-16T10:15:41.659Z,95603.16
2022-09-16T10:18:14.353Z,95610.84
2022-09-16T10:20:45.552Z,95622.03
2022-09-16T10:23:17.357Z,95621.16
2022-09-16T10:25:45.180Z,95626.78
2022-09-16T10:28:22.078Z,95628.63
2022-09-16T10:30:56.425Z,95614.50
2022-09-16T10:33:26.632Z,95611.91
2022-09-16T10:35:57.970Z,95613.19
2022-09-16T10:38:37.373Z,95629.81
2022-09-16T10:41:15.400Z,95611.28
2022-09-16T10:43:51.113Z,95615.00
2022-09-16T10:46:19.913Z,95615.53
2022-09-16T10:48:49.397Z,95621.75
2022-09-16T10:51:25.547Z,95632.97
2022-09-16T10:53:56.818Z,95628.03
2022-09-16T10:56:29.273Z,95628.72
2022-09-16T10:59:05.951Z,95632.91
2022-09-16T11:01:47.148Z,95640.47
2022-09-16T11:04:55.731Z,95633.56
2022-09-16T11:07:35.632Z,95643.97
2022-09-16T11:10:15.991Z,95651.06
2022-09-16T11:13:06.248Z,95652.31
2022-09-16T11:15:46.960Z,95641.22
2022-09-16T11:18:30.362Z,95643.41
2022-09-16T11:21:18.739Z,95650.84
2022-09-16T11:24:03.158Z,95654.25
2022-09-16T11:26:43.391Z,95647.16
2022-09-16T11:29:27.420Z,95645.53
2022-09-16T11:32:03.306Z,95636.22
2022-09-16T11:34:48.279Z,95639.22
2022-09-16T11:37:23.108Z,95643.31
2022-09-16T11:40:06.189Z,95636.75
2022-09-16T11:42:39.343Z,95642.63
2022-09-16T11:45:22.362Z,95641.94
2022-09-16T11:48:01.862Z,95645.38
2022-09-16T11:50:46.659Z,95656.66
2022-09-16T11:53:31.251Z,95657.66
2022-09-16T11:56:04.628Z,95653.38
2022-09-16T11:58:40.135Z,95664.25
2022-09-16T12:01:20.428Z,95661.59
2022-09-16T12:03:53.712Z,95658.81
2022-09-16T12:06:25.999Z,95650.59
2022-09-16T12:08:59.794Z,95645.25
2022-09-16T12:11:33.925Z,95640.53
2022-09-16T12:14:11.508Z,95645.03
2022-09-16T12:16:44.443Z,95641.94
2022-09-16T12:19:22.522Z,95643.41
2022-09-16T12:21:57.966Z,95649.84
2022-09-16T12:24:32.252Z,95650.25
2022-09-16T12:27:07.049Z,95657.47
2022-09-16T12:29:44.349Z,95666.13
2022-09-16T12:32:16.856Z,95674.81
2022-09-16T12:34:49.218Z,95678.25
2022-09-16T12:37:33.727Z,95675.97
2022-09-16T12:40:01.802Z,95679.53
2022-09-16T12:42:57.888Z,95682.88
2022-09-16T12:45:47.538Z,95671.38
2022-09-16T12:48:41.121Z,95665.94
2022-09-16T12:51:37.614Z,95674.66
2022-09-16T12:54:45.750Z,95663.94
2022-09-16T12:57:37.404Z,95657.09
2022-09-16T13:00:18.115Z,95652.09
2022-09-16T13:02:51.840Z,95661.72
2022-09-16T13:05:27.227Z,95679.47
2022-09-16T13:07:59.656Z,95665.16
2022-09-16T13:10:53.764Z,95661.97
2022-09-16T13:13:30.955Z,95665.06
2022-09-16T13:16:00.980Z,95659.25
2022-09-16T13:18:45.232Z,95645.97
2022-09-16T13:21:26.156Z,95646.03
2022-09-16T13:24:02.392Z,95650.16
2022-09-16T13:26:40.962Z,95645.88
2022-09-16T13:29:39.611Z,95649.38
2022-09-16T13:32:26.177Z,95659.28
2022-09-16T13:35:06.552Z,95666.25
2022-09-16T13:37:34.308Z,95665.19
2022-09-16T13:40:19.581Z,95668.16
2022-09-16T13:42:47.423Z,95660.97
2022-09-16T13:45:36.302Z,95663.25
2022-09-16T13:48:22.246Z,95668.78
2022-09-16T13:50:54.309Z,95656.41
2022-09-16T13:53:28.131Z,95658.84
2022-09-16T13:56:02.204Z,95670.88
2022-09-16T13:58:34.983Z,95665.19
2022-09-16T14:01:13.489Z,95665.72
2022-09-16T14:03:50.675Z,95663.94
2022-09-16T14:06:51.607Z,95667.81
2022-09-16T14:09:32.549Z,95664.66
2022-09-16T14:12:13.418Z,95656.31
2022-09-16T14:14:49.406Z,95663.22
2022-09-16T14:17:21.781Z,95653.19
2022-09-16T14:19:51.246Z,95656.75
2022-09-16T14:22:23.137Z,95655.38
2022-09-16T14:25:00.588Z,95646.34
2022-09-16T14:27:36.653Z,95653.16
2022-09-16T14:30:07.265Z,95650.97
2022-09-16T14:32:37.841Z,95656.25
2022-09-16T14:35:11.916Z,95661.84
2022-09-16T14:37:41.892Z,95656.50
2022-09-16T14:40:14.882Z,95653.78
2022-09-16T14:42:48.318Z,95647.88
2022-09-16T14:45:17.702Z,95658.84
2022-09-16T14:47:51.616Z,95662.72
2022-09-16T14:50:23.296Z,95656.59
2022-09-16T14:52:57.141Z,95652.88
2022-09-16T14:55:26.872Z,95655.38
2022-09-16T14:57:54.697Z,95652.88
2022-09-16T15:00:26.219Z,95646.75
2022-09-16T15:03:00.165Z,95639.03
2022-09-16T15:05:33.444Z,95644.91
2022-09-16T15:08:14.641Z,95650.25
2022-09-16T15:10:52.485Z,95654.03
2022-09-16T15:13:23.847Z,95645.31
2022-09-16T15:15:56.154Z,95646.78
2022-09-16T15:18:28.491Z,95646.97
2022-09-16T15:21:04.212Z,95646.25
2022-09-16T15:23:34.518Z,95643.53
2022-09-16T15:26:12.688Z,95640.59
2022-09-16T15:28:52.299Z,95639.28
2022-09-16T15:31:28.409Z,95643.66
2022-09-16T15:33:58.719Z,95649.00
2022-09-16T15:36:36.319Z,95637.78
2022-09-16T15:39:05.873Z,95643.94
2022-09-16T15:41:33.941Z,95642.78
2022-09-16T15:44:02.957Z,95632.78
2022-09-16T15:46:30.941Z,95637.44
2022-09-16T15:49:00.669Z,95634.66
2022-09-16T15:51:33.916Z,95633.34
2022-09-16T15:54:14.265Z,95620.53
2022-09-16T15:56:55.071Z,95629.03
2022-09-16T15:59:29.799Z,95634.84
2022-09-16T16:02:00.741Z,95634.28
2022-09-16T16:04:31.848Z,95629.91
2022-09-16T16:07:01.544Z,95624.16
2022-09-16T16:09:33.935Z,95623.63
2022-09-16T16:12:03.404Z,95613.34
2022-09-16T16:14:33.677Z,95626.59
2022-09-16T16:17:12.765Z,95626.16
2022-09-16T16:19:42.515Z,95623.34
2022-09-16T16:22:11.526Z,95628.72
2022-09-16T16:24:41.213Z,95627.22
2022-09-16T16:27:10.160Z,95628.00
2022-09-16T16:29:38.885Z,95633.69
2022-09-16T16:32:09.196Z,95641.06
2022-09-16T16:34:40.675Z,95638.97
2022-09-16T16:37:09.831Z,95641.59
2022-09-16T16:39:37.916Z,95636.94
2022-09-16T16:42:08.115Z,95636.06
2022-09-16T16:44:36.258Z,95632.44
2022-09-16T16:47:04.847Z,95635.06
2022-09-16T16:49:33.825Z,95627.53
2022-09-16T16:52:01.974Z,95629.00
2022-09-16T16:54:30.139Z,95634.38
2022-09-16T16:56:58.644Z,95632.34
2022-09-16T16:59:28.718Z,95633.75
2022-09-16T17:01:58.506Z,95636.09
2022-09-16T17:04:26.509Z,95645.97
2022-09-16T17:07:21.564Z,95648.00
2022-09-16T17:09:42.683Z,95649.94
2022-09-16T17:12:10.674Z,95647.13
2022-09-16T17:14:40.764Z,95637.41
2022-09-16T17:17:08.478Z,95633.88
2022-09-16T17:19:36.193Z,95631.19
2022-09-16T17:22:03.855Z,95638.44
2022-09-16T17:24:31.558Z,95632.00
2022-09-16T17:27:00.176Z,95631.09
2022-09-16T17:29:27.843Z,95634.50
2022-09-16T17:31:57.290Z,95631.25
2022-09-16T17:34:26.246Z,95633.50
2022-09-16T17:36:54.490Z,95631.84
2022-09-16T17:39:23.012Z,95634.13
2022-09-16T17:41:52.009Z,95634.53
2022-09-16T17:44:20.551Z,95640.22
2022-09-16T17:46:48.713Z,95629.72
2022-09-16T17:49:20.172Z,95640.47
2022-09-16T17:51:48.232Z,95623.88
2022-09-16T17:54:16.030Z,95634.97
2022-09-16T17:56:44.272Z,95638.72
2022-09-16T17:59:13.424Z,95637.47
2022-09-16T18:01:41.315Z,95646.75
2022-09-16T18:04:09.087Z,95637.59
2022-09-16T18:06:43.400Z,95651.75
2022-09-16T18:09:11.750Z,95647.34
2022-09-16T18:11:40.349Z,95638.97
2022-09-16T18:14:11.188Z,95646.69
2022-09-16T18:16:38.954Z,95646.31
2022-09-16T18:19:06.871Z,95647.81
2022-09-16T18:21:34.684Z,95651.63
2022-09-16T18:24:05.268Z,95659.78
2022-09-16T18:26:33.416Z,95644.63
2022-09-16T18:29:11.219Z,95656.06
2022-09-16T18:31:48.634Z,95653.66
2022-09-16T18:34:17.813Z,95663.97
2022-09-16T18:36:45.517Z,95667.03
2022-09-16T18:39:16.592Z,95667.69
2022-09-16T18:41:45.797Z,95663.84
2022-09-16T18:44:16.176Z,95667.38
2022-09-16T18:46:44.072Z,95671.53
2022-09-16T18:49:13.781Z,95675.81
2022-09-16T18:51:48.508Z,95661.47
2022-09-16T18:54:24.381Z,95668.03
2022-09-16T18:56:52.559Z,95654.00
2022-09-16T18:59:23.327Z,95661.25
2022-09-16T19:01:53.350Z,95670.41
2022-09-16T19:04:22.817Z,95664.75
2022-09-16T19:06:53.065Z,95673.66
2022-09-16T19:09:23.941Z,95667.44
2022-09-16T19:11:54.403Z,95674.44
2022-09-16T19:14:24.612Z,95670.81
2022-09-16T19:16:53.117Z,95675.81
2022-09-16T19:19:21.967Z,95672.44
2022-09-16T19:21:49.955Z,95669.72
2022-09-16T19:24:19.025Z,95670.38
2022-09-16T19:26:49.512Z,95674.34
2022-09-16T19:29:18.228Z,95671.97
2022-09-16T19:31:48.223Z,95673.44
2022-09-16T19:34:17.392Z,95670.25
2022-09-16T19:36:45.369Z,95668.69
2022-09-16T19:39:14.192Z,95664.16
2022-09-16T19:41:42.632Z,95662.41
2022-09-16T19:44:14.518Z,95663.09
2022-09-16T19:46:43.207Z,95673.59
2022-09-16T19:49:15.843Z,95671.91
2022-09-16T19:51:44.048Z,95673.81
2022-09-16T19:54:11.790Z,95676.88
2022-09-16T19:56:40.171Z,95676.19
2022-09-16T19:59:08.079Z,95672.81
2022-09-16T20:01:38.104Z,95681.28
2022-09-16T20:04:08.048Z,95688.94
2022-09-16T20:06:37.788Z,95693.56
2022-09-16T20:09:08.125Z,95702.81
2022-09-16T20:11:38.002Z,95709.94
2022-09-16T20:14:07.340Z,95720.66
2022-09-16T20:16:39.109Z,95711.16
2022-09-16T20:19:09.566Z,95705.19
2022-09-16T20:21:38.227Z,95717.59
2022-09-16T20:24:07.797Z,95716.94
2022-09-16T20:26:36.113Z,95714.69
2022-09-16T20:29:05.192Z,95716.28
2022-09-16T20:31:34.575Z,95720.88
2022-09-16T20:34:04.573Z,95713.22
2022-09-16T20:36:33.531Z,95713.69
2022-09-16T20:39:01.277Z,95696.34
2022-09-16T20:41:31.311Z,95704.13
2022-09-16T20:44:00.152Z,95701.75
2022-09-16T20:46:29.684Z,95710.03
2022-09-16T20:48:58.887Z,95716.50
2022-09-16T20:51:31.196Z,95726.72
2022-09-16T20:54:05.026Z,95726.16
2022-09-16T20:56:38.871Z,95731.00
2022-09-16T20:59:08.175Z,95728.16
2022-09-16T21:01:37.047Z,95732.97
2022-09-16T21:04:07.413Z,95729.47
2022-09-16T21:06:37.436Z,95729.81
2022-09-16T21:09:07.119Z,95730.81
2022-09-16T21:11:35.591Z,95733.53
2022-09-16T21:14:06.334Z,95734.75
2022-09-16T21:16:36.997Z,95743.81
2022-09-16T21:19:09.102Z,95745.72
2022-09-16T21:21:39.952Z,95760.59
2022-09-16T21:24:08.492Z,95759.00
2022-09-16T21:26:38.118Z,95761.25
2022-09-16T21:29:08.780Z,95760.13
2022-09-16T21:31:37.869Z,95756.63
2022-09-16T21:34:07.283Z,95757.28
2022-09-16T21:36:35.188Z,95754.13
2022-09-16T21:39:04.676Z,95757.19
2022-09-16T21:41:32.358Z,95755.72
2022-09-16T21:44:00.058Z,95755.72
2022-09-16T21:46:30.203Z,95752.34
2022-09-16T21:49:01.166Z,95749.38
2022-09-16T21:51:34.788Z,95749.56
2022-09-16T21:54:04.880Z,95754.19
2022-09-16T21:56:32.956Z,95746.84
2022-09-16T21:59:00.788Z,95749.38
2022-09-16T22:01:31.493Z,95752.06
2022-09-16T22:04:00.979Z,95743.16
2022-09-16T22:06:29.168Z,95748.56
2022-09-16T22:08:58.905Z,95742.56
2022-09-16T22:11:31.433Z,95746.41
2022-09-16T22:14:00.875Z,95754.34
2022-09-16T22:16:30.049Z,95748.72
2022-09-16T22:18:59.490Z,95754.13
2022-09-16T22:21:29.175Z,95751.75
2022-09-16T22:23:58.124Z,95751.63
2022-09-16T22:26:26.148Z,95756.56
2022-09-16T22:28:55.589Z,95753.75
2022-09-16T22:31:25.793Z,95754.72
2022-09-16T22:33:55.376Z,95751.34
2022-09-16T22:36:24.927Z,95743.44
2022-09-16T22:38:54.253Z,95755.38
2022-09-16T22:41:23.048Z,95751.88
2022-09-16T22:43:52.055Z,95753.47
2022-09-16T22:46:23.576Z,95748.63
2022-09-16T22:48:51.812Z,95748.31
2022-09-16T22:51:20.728Z,95744.50
2022-09-16T22:53:49.608Z,95745.94
2022-09-16T22:56:19.380Z,95752.94
2022-09-16T22:58:47.959Z,95739.88
2022-09-16T23:01:18.156Z,95744.63
2022-09-16T23:03:48.287Z,95742.38
2022-09-16T23:06:16.675Z,95738.41
2022-09-16T23:08:46.345Z,95742.38
2022-09-16T23:11:16.231Z,95740.94
2022-09-16T23:13:45.269Z,95742.81
2022-09-16T23:16:16.091Z,95743.16
2022-09-16T23:18:45.389Z,95743.94
2022-09-16T23:21:15.660Z,95736.16
2022-09-16T23:23:45.825Z,95738.88
2022-09-16T23:26:16.639Z,95735.84
2022-09-16T23:28:44.822Z,95737.16
2022-09-16T23:31:14.951Z,95743.09
2022-09-16T23:33:43.483Z,95741.38
2022-09-16T23:36:12.692Z,95735.06
2022-09-16T23:38:42.798Z,95731.56
2022-09-16T23:41:13.315Z,95735.25
2022-09-16T23:43:41.731Z,95726.00
2022-09-16T23:46:09.915Z,95733.34
2022-09-16T23:48:38.409Z,95733.00
2022-09-16T23:51:07.296Z,95732.56
2022-09-16T23:53:35.854Z,95733.84
2022-09-16T23:56:07.673Z,95738.81
2022-09-16T23:58:36.109Z,95731.53
